createdAt,value
2023-04-15T00:02:21.375Z,7.22
2023-04-15T00:04:49.817Z,7.26
2023-04-15T00:07:18.119Z,7.34
2023-04-15T00:09:46.212Z,7.37
2023-04-15T00:12:14.054Z,7.39
2023-04-15T00:14:41.995Z,7.43
2023-04-15T00:17:09.990Z,7.43
2023-04-15T00:19:38.447Z,7.41
2023-04-15T00:22:06.422Z,7.42
2023-04-15T00:24:34.237Z,7.36
2023-04-15T00:27:02.128Z,7.36
2023-04-15T00:29:30.644Z,7.36
2023-04-15T00:31:58.590Z,7.37
2023-04-15T00:34:27.964Z,7.28
2023-04-15T00:36:55.890Z,7.23
2023-04-15T00:39:23.775Z,7.23
2023-04-15T00:41:51.933Z,7.12
2023-04-15T00:44:20.177Z,7.13
2023-04-15T00:46:50.901Z,7.13
2023-04-15T00:49:19.487Z,7.05
2023-04-15T00:51:47.403Z,6.99
2023-04-15T00:54:16.371Z,6.93
2023-04-15T00:56:44.712Z,6.90
2023-04-15T00:59:13.526Z,6.90
2023-04-15T01:01:41.951Z,6.87
2023-04-15T01:04:11.653Z,6.87
2023-04-15T01:06:39.601Z,6.90
2023-04-15T01:09:07.520Z,6.91
2023-04-15T01:11:35.810Z,6.93
2023-04-15T01:14:03.874Z,6.93
2023-04-15T01:16:32.283Z,6.96
2023-04-15T01:19:01.393Z,6.96
2023-04-15T01:21:30.059Z,7.00
2023-04-15T01:23:59.043Z,6.97
2023-04-15T01:26:27.456Z,6.90
2023-04-15T01:28:56.454Z,6.91
2023-04-15T01:31:25.328Z,6.88
2023-04-15T01:33:53.284Z,6.83
2023-04-15T01:36:21.284Z,6.75
2023-04-15T01:38:49.204Z,6.76
2023-04-15T01:41:17.423Z,6.74
2023-04-15T01:43:45.855Z,6.71
2023-04-15T01:46:14.205Z,6.61
2023-04-15T01:48:42.085Z,6.47
2023-04-15T01:51:10.010Z,6.33
2023-04-15T01:53:37.892Z,6.22
2023-04-15T01:56:07.342Z,6.15
2023-04-15T01:58:35.283Z,6.02
2023-04-15T02:01:04.146Z,6.01
2023-04-15T02:03:33.096Z,5.97
2023-04-15T02:06:01.086Z,5.98
2023-04-15T02:08:29.949Z,5.98
2023-04-15T02:10:58.172Z,6.02
2023-04-15T02:13:27.179Z,6.07
2023-04-15T02:15:57.559Z,6.12
2023-04-15T02:18:25.691Z,6.07
2023-04-15T02:20:53.715Z,6.07
2023-04-15T02:23:21.589Z,6.07
2023-04-15T02:25:53.329Z,6.06
2023-04-15T02:28:22.290Z,6.02
2023-04-15T02:30:54.384Z,5.97
2023-04-15T02:33:22.328Z,5.92
2023-04-15T02:35:50.945Z,5.90
2023-04-15T02:38:19.029Z,5.91
2023-04-15T02:40:49.751Z,5.93
2023-04-15T02:43:17.798Z,5.93
2023-04-15T02:45:47.154Z,5.94
2023-04-15T02:48:18.119Z,5.91
2023-04-15T02:50:46.986Z,5.91
2023-04-15T02:53:15.581Z,5.88
2023-04-15T02:55:43.555Z,5.90
2023-04-15T02:58:11.601Z,5.93
2023-04-15T03:00:39.925Z,6.00
2023-04-15T03:03:08.343Z,6.03
2023-04-15T03:05:39.018Z,5.98
2023-04-15T03:08:07.628Z,5.93
2023-04-15T03:10:35.628Z,5.88
2023-04-15T03:13:03.483Z,5.81
2023-04-15T03:15:33.104Z,5.76
2023-04-15T03:18:01.985Z,5.70
2023-04-15T03:20:30.092Z,5.66
2023-04-15T03:22:58.185Z,5.54
2023-04-15T03:25:26.390Z,5.40
2023-04-15T03:27:54.460Z,5.31
2023-04-15T03:30:22.384Z,5.19
2023-04-15T03:32:50.872Z,5.08
2023-04-15T03:35:18.793Z,5.00
2023-04-15T03:37:46.689Z,4.99
2023-04-15T03:40:14.554Z,4.95
2023-04-15T03:42:42.474Z,4.92
2023-04-15T03:45:10.976Z,4.93
2023-04-15T03:47:38.874Z,4.95
2023-04-15T03:50:07.413Z,4.97
2023-04-15T03:52:35.569Z,4.99
2023-04-15T03:55:03.588Z,5.04
2023-04-15T03:57:31.555Z,5.03
2023-04-15T03:59:59.482Z,5.08
2023-04-15T04:02:28.516Z,5.14
2023-04-15T04:04:56.599Z,5.19
2023-04-15T04:07:25.006Z,5.23
2023-04-15T04:09:52.978Z,5.32
2023-04-15T04:12:21.128Z,5.41
2023-04-15T04:14:49.032Z,5.50
2023-04-15T04:17:16.930Z,5.60
2023-04-15T04:19:44.838Z,5.68
2023-04-15T04:22:12.657Z,5.78
2023-04-15T04:24:40.530Z,5.87
2023-04-15T04:27:08.509Z,5.95
2023-04-15T04:29:36.338Z,6.10
2023-04-15T04:32:04.253Z,6.35
2023-04-15T04:34:32.726Z,6.66
2023-04-15T04:37:00.908Z,6.96
2023-04-15T04:39:29.165Z,7.21
2023-04-15T04:41:57.565Z,7.43
2023-04-15T04:44:25.499Z,7.72
2023-04-15T04:46:53.518Z,7.98
2023-04-15T04:49:21.351Z,8.24
2023-04-15T04:51:49.254Z,8.37
2023-04-15T04:54:17.764Z,8.51
2023-04-15T04:56:45.709Z,8.69
2023-04-15T04:59:14.220Z,8.87
2023-04-15T05:01:42.889Z,9.04
2023-04-15T05:04:11.578Z,9.23
2023-04-15T05:06:39.633Z,9.44
2023-04-15T05:09:08.043Z,9.64
2023-04-15T05:11:36.027Z,9.80
2023-04-15T05:14:04.092Z,9.95
2023-04-15T05:16:31.909Z,10.14
2023-04-15T05:19:00.280Z,10.16
2023-04-15T05:21:28.590Z,10.10
2023-04-15T05:23:56.574Z,10.15
2023-04-15T05:26:24.569Z,10.14
2023-04-15T05:28:52.488Z,10.09
2023-04-15T05:31:20.665Z,10.20
2023-04-15T05:33:48.828Z,10.47
2023-04-15T05:36:16.871Z,10.57
2023-04-15T05:38:44.902Z,10.70
2023-04-15T05:41:12.934Z,10.86
2023-04-15T05:43:41.146Z,10.98
2023-04-15T05:46:09.553Z,11.04
2023-04-15T05:48:37.689Z,11.07
2023-04-15T05:51:05.822Z,10.94
2023-04-15T05:53:33.762Z,10.87
2023-04-15T05:56:01.657Z,10.76
2023-04-15T05:58:29.590Z,10.78
2023-04-15T06:00:57.566Z,10.79
2023-04-15T06:03:25.850Z,10.78
2023-04-15T06:05:54.553Z,10.88
2023-04-15T06:08:23.427Z,10.94
2023-04-15T06:10:51.537Z,11.07
2023-04-15T06:13:19.495Z,11.07
2023-04-15T06:15:47.662Z,11.10
2023-04-15T06:18:15.676Z,11.20
2023-04-15T06:20:43.542Z,11.19
2023-04-15T06:23:11.550Z,11.13
2023-04-15T06:25:39.506Z,11.02
2023-04-15T06:28:07.473Z,11.15
2023-04-15T06:30:36.229Z,11.08
2023-04-15T06:33:06.576Z,11.03
2023-04-15T06:35:34.655Z,11.13
2023-04-15T06:38:02.616Z,11.06
2023-04-15T06:40:30.680Z,11.10
2023-04-15T06:42:58.798Z,11.12
2023-04-15T06:45:27.506Z,11.14
2023-04-15T06:47:55.495Z,11.20
2023-04-15T06:50:23.449Z,11.17
2023-04-15T06:52:51.333Z,11.16
2023-04-15T06:55:19.348Z,11.07
2023-04-15T06:57:47.291Z,11.03
2023-04-15T07:00:15.819Z,11.01
2023-04-15T07:02:44.840Z,10.91
2023-04-15T07:05:13.013Z,10.83
2023-04-15T07:07:41.151Z,10.71
2023-04-15T07:10:09.517Z,10.71
2023-04-15T07:12:37.549Z,10.61
2023-04-15T07:15:06.891Z,10.58
2023-04-15T07:17:34.787Z,10.59
2023-04-15T07:20:05.005Z,10.59
2023-04-15T07:22:33.083Z,10.51
2023-04-15T07:25:01.557Z,10.56
2023-04-15T07:27:29.543Z,10.64
2023-04-15T07:29:57.519Z,10.69
2023-04-15T07:32:26.190Z,10.80
2023-04-15T07:34:54.177Z,10.85
2023-04-15T07:37:22.110Z,11.02
2023-04-15T07:39:50.084Z,11.20
2023-04-15T07:42:18.150Z,11.57
2023-04-15T07:44:46.133Z,11.99
2023-04-15T07:47:14.178Z,12.21
2023-04-15T07:49:43.563Z,12.56
2023-04-15T07:52:11.520Z,12.84
2023-04-15T07:54:40.011Z,12.92
2023-04-15T07:57:08.121Z,13.04
2023-04-15T07:59:36.108Z,12.84
2023-04-15T08:02:04.297Z,12.91
2023-04-15T08:04:32.619Z,12.92
2023-04-15T08:07:00.836Z,12.96
2023-04-15T08:09:28.805Z,13.00
2023-04-15T08:11:57.234Z,12.98
2023-04-15T08:14:25.650Z,13.08
2023-04-15T08:16:53.542Z,13.24
2023-04-15T08:19:21.613Z,13.26
2023-04-15T08:21:49.804Z,13.29
2023-04-15T08:24:18.866Z,13.37
2023-04-15T08:26:47.482Z,13.47
2023-04-15T08:29:15.386Z,13.64
2023-04-15T08:31:43.670Z,13.78
2023-04-15T08:34:12.547Z,13.94
2023-04-15T08:36:40.610Z,13.87
2023-04-15T08:39:08.662Z,14.13
2023-04-15T08:41:48.036Z,14.26
2023-04-15T08:44:16.349Z,14.59
2023-04-15T08:46:44.835Z,14.76
2023-04-15T08:49:13.552Z,14.95
2023-04-15T08:51:42.076Z,14.97
2023-04-15T08:54:10.740Z,14.77
2023-04-15T08:56:39.070Z,14.92
2023-04-15T08:59:07.508Z,15.10
2023-04-15T09:01:37.327Z,15.23
2023-04-15T09:04:08.204Z,15.23
2023-04-15T09:06:36.409Z,15.32
2023-04-15T09:09:04.464Z,15.28
2023-04-15T09:11:32.535Z,15.47
2023-04-15T09:14:00.420Z,15.67
2023-04-15T09:16:28.514Z,15.81
2023-04-15T09:18:56.784Z,15.72
2023-04-15T09:21:24.871Z,15.32
2023-04-15T09:23:56.418Z,15.53
2023-04-15T09:26:34.973Z,15.95
2023-04-15T09:29:07.592Z,15.92
2023-04-15T09:31:37.002Z,16.19
2023-04-15T09:34:04.954Z,16.36
2023-04-15T09:36:50.972Z,16.35
2023-04-15T09:39:19.266Z,16.04
2023-04-15T09:41:48.025Z,16.37
2023-04-15T09:44:25.702Z,16.61
2023-04-15T09:46:53.685Z,16.62
2023-04-15T09:49:21.633Z,16.25
2023-04-15T09:52:01.703Z,16.14
2023-04-15T09:54:33.839Z,15.88
2023-04-15T09:57:05.551Z,15.99
2023-04-15T09:59:33.723Z,16.21
2023-04-15T10:02:04.306Z,16.20
2023-04-15T10:04:35.720Z,16.33
2023-04-15T10:07:05.394Z,16.43
2023-04-15T10:09:34.916Z,16.40
2023-04-15T10:12:05.725Z,16.18
2023-04-15T10:14:35.666Z,15.81
2023-04-15T10:17:04.502Z,15.71
2023-04-15T10:19:33.781Z,15.28
2023-04-15T10:22:02.218Z,14.83
2023-04-15T10:24:33.384Z,14.82
2023-04-15T10:27:02.445Z,14.32
2023-04-15T10:29:30.424Z,14.69
2023-04-15T10:32:01.772Z,14.66
2023-04-15T10:34:30.261Z,14.24
2023-04-15T10:37:01.758Z,14.87
2023-04-15T10:39:45.300Z,15.11
2023-04-15T10:42:17.067Z,14.93
2023-04-15T10:44:48.576Z,14.72
2023-04-15T10:47:20.574Z,14.57
2023-04-15T10:49:50.191Z,14.82
2023-04-15T10:52:22.852Z,15.23
2023-04-15T10:54:50.926Z,15.54
2023-04-15T10:57:23.181Z,15.94
2023-04-15T11:00:00.224Z,16.14
2023-04-15T11:02:47.883Z,16.38
2023-04-15T11:05:17.220Z,16.55
2023-04-15T11:07:51.415Z,15.94
2023-04-15T11:10:26.012Z,16.00
2023-04-15T11:12:56.951Z,16.15
2023-04-15T11:15:24.808Z,16.22
2023-04-15T11:17:53.047Z,16.23
2023-04-15T11:20:21.368Z,16.14
2023-04-15T11:23:14.166Z,16.02
2023-04-15T11:25:43.303Z,16.19
2023-04-15T11:28:12.326Z,16.43
2023-04-15T11:30:40.862Z,16.63
2023-04-15T11:33:10.338Z,16.34
2023-04-15T11:35:38.339Z,16.57
2023-04-15T11:38:08.958Z,16.71
2023-04-15T11:40:37.743Z,16.75
2023-04-15T11:43:06.758Z,16.62
2023-04-15T11:45:35.232Z,16.37
2023-04-15T11:48:10.658Z,16.16
2023-04-15T11:50:41.182Z,16.10
2023-04-15T11:53:10.155Z,15.79
2023-04-15T11:55:43.093Z,15.84
2023-04-15T11:58:11.134Z,15.68
2023-04-15T12:00:40.382Z,16.02
2023-04-15T12:03:17.899Z,16.28
2023-04-15T12:06:06.139Z,16.29
2023-04-15T12:08:54.189Z,16.44
2023-04-15T12:11:32.740Z,16.64
2023-04-15T12:14:11.682Z,16.62
2023-04-15T12:16:48.023Z,16.59
2023-04-15T12:19:25.502Z,16.35
2023-04-15T12:21:54.774Z,16.30
2023-04-15T12:24:23.189Z,16.59
2023-04-15T12:26:53.379Z,16.55
2023-04-15T12:29:25.076Z,16.44
2023-04-15T12:31:52.986Z,16.16
2023-04-15T12:34:27.117Z,15.50
2023-04-15T12:36:55.741Z,15.11
2023-04-15T12:39:30.432Z,15.02
2023-04-15T12:42:00.523Z,15.34
2023-04-15T12:44:28.694Z,15.66
2023-04-15T12:46:56.944Z,16.01
2023-04-15T12:49:25.697Z,16.10
2023-04-15T12:51:55.432Z,16.01
2023-04-15T12:54:23.873Z,15.71
2023-04-15T12:56:52.087Z,15.64
2023-04-15T12:59:21.249Z,15.70
2023-04-15T13:01:50.255Z,15.73
2023-04-15T13:04:19.503Z,15.88
2023-04-15T13:06:47.764Z,15.71
2023-04-15T13:09:15.853Z,15.87
2023-04-15T13:11:44.066Z,16.02
2023-04-15T13:14:13.178Z,15.78
2023-04-15T13:16:41.711Z,15.41
2023-04-15T13:19:09.724Z,15.64
2023-04-15T13:21:37.681Z,15.40
2023-04-15T13:24:07.462Z,15.30
2023-04-15T13:26:36.318Z,15.16
2023-04-15T13:29:05.444Z,15.39
2023-04-15T13:31:33.426Z,15.66
2023-04-15T13:34:01.386Z,15.90
2023-04-15T13:36:29.410Z,15.85
2023-04-15T13:38:57.877Z,15.48
2023-04-15T13:41:25.765Z,15.73
2023-04-15T13:43:53.652Z,15.82
2023-04-15T13:46:22.340Z,15.56
2023-04-15T13:48:50.563Z,15.36
2023-04-15T13:51:18.566Z,15.32
2023-04-15T13:53:46.591Z,15.35
2023-04-15T13:56:14.553Z,15.55
2023-04-15T13:58:42.565Z,15.55
2023-04-15T14:01:10.503Z,15.42
2023-04-15T14:03:38.658Z,15.64
2023-04-15T14:06:06.886Z,15.68
2023-04-15T14:08:34.789Z,15.42
2023-04-15T14:11:02.900Z,15.73
2023-04-15T14:13:31.396Z,15.68
2023-04-15T14:15:59.591Z,15.72
2023-04-15T14:18:27.800Z,15.71
2023-04-15T14:20:56.035Z,15.74
2023-04-15T14:23:23.925Z,15.76
2023-04-15T14:25:52.381Z,15.48
2023-04-15T14:28:20.615Z,15.41
2023-04-15T14:30:48.644Z,15.31
2023-04-15T14:33:16.658Z,15.23
2023-04-15T14:35:44.721Z,15.10
2023-04-15T14:38:12.805Z,14.86
2023-04-15T14:40:41.464Z,14.74
2023-04-15T14:43:09.459Z,14.66
2023-04-15T14:45:38.731Z,14.56
2023-04-15T14:48:09.980Z,14.30
2023-04-15T14:50:38.235Z,14.39
2023-04-15T14:53:06.371Z,14.28
2023-04-15T14:55:34.748Z,14.24
2023-04-15T14:58:02.740Z,14.18
2023-04-15T15:00:30.998Z,14.25
2023-04-15T15:02:59.139Z,14.34
2023-04-15T15:05:27.563Z,14.48
2023-04-15T15:07:55.766Z,14.16
2023-04-15T15:10:33.682Z,14.11
2023-04-15T15:13:11.800Z,13.87
2023-04-15T15:15:40.142Z,13.80
2023-04-15T15:18:08.302Z,13.75
2023-04-15T15:20:36.423Z,13.61
2023-04-15T15:23:04.330Z,13.52
2023-04-15T15:25:32.713Z,13.24
2023-04-15T15:28:00.785Z,13.06
2023-04-15T15:30:28.784Z,12.80
2023-04-15T15:32:56.696Z,12.72
2023-04-15T15:35:26.213Z,12.44
2023-04-15T15:37:55.141Z,12.31
2023-04-15T15:40:23.318Z,12.54
2023-04-15T15:42:51.373Z,12.68
2023-04-15T15:45:19.316Z,12.72
2023-04-15T15:47:47.773Z,12.92
2023-04-15T15:50:15.781Z,13.10
2023-04-15T15:52:43.819Z,13.18
2023-04-15T15:55:11.836Z,13.20
2023-04-15T15:57:39.721Z,13.21
2023-04-15T16:00:12.095Z,13.19
2023-04-15T16:03:05.003Z,13.11
2023-04-15T16:05:28.772Z,12.85
2023-04-15T16:07:56.855Z,12.77
2023-04-15T16:10:24.801Z,12.66
2023-04-15T16:12:52.691Z,12.59
2023-04-15T16:15:20.704Z,12.41
2023-04-15T16:17:48.819Z,12.28
2023-04-15T16:20:16.958Z,12.21
2023-04-15T16:22:45.146Z,12.14
2023-04-15T16:25:13.157Z,12.03
2023-04-15T16:27:57.295Z,11.91
2023-04-15T16:30:27.334Z,11.78
2023-04-15T16:32:55.301Z,11.67
2023-04-15T16:35:23.195Z,11.56
2023-04-15T16:37:51.376Z,11.41
2023-04-15T16:40:19.253Z,11.25
2023-04-15T16:42:47.207Z,11.13
2023-04-15T16:45:15.223Z,10.99
2023-04-15T16:47:43.387Z,10.83
2023-04-15T16:50:11.734Z,10.71
2023-04-15T16:52:39.742Z,10.67
2023-04-15T16:55:07.736Z,10.60
2023-04-15T16:58:02.742Z,10.53
2023-04-15T17:00:23.760Z,10.49
2023-04-15T17:02:51.818Z,10.44
2023-04-15T17:05:19.953Z,10.38
2023-04-15T17:07:47.899Z,10.31
2023-04-15T17:10:15.880Z,10.26
2023-04-15T17:12:43.854Z,10.21
2023-04-15T17:15:11.926Z,10.16
2023-04-15T17:17:39.821Z,10.10
2023-04-15T17:20:08.090Z,10.05
2023-04-15T17:22:36.098Z,10.01
2023-04-15T17:25:04.752Z,9.99
2023-04-15T17:27:32.803Z,9.96
2023-04-15T17:30:00.985Z,9.93
2023-04-15T17:32:32.047Z,9.91
2023-04-15T17:35:00.865Z,9.94
2023-04-15T17:37:28.809Z,9.99
2023-04-15T17:39:56.899Z,10.06
2023-04-15T17:42:26.463Z,10.14
2023-04-15T17:44:54.639Z,10.15
2023-04-15T17:47:22.720Z,10.14
2023-04-15T17:49:50.701Z,10.18
2023-04-15T17:52:18.736Z,10.23
2023-04-15T17:54:47.380Z,10.33
2023-04-15T17:57:15.301Z,10.38
2023-04-15T17:59:44.335Z,10.37
2023-04-15T18:02:12.325Z,10.36
2023-04-15T18:04:40.673Z,10.36
2023-04-15T18:07:09.034Z,10.27
2023-04-15T18:09:37.023Z,10.21
2023-04-15T18:12:07.575Z,10.12
2023-04-15T18:14:36.130Z,10.18
2023-04-15T18:17:04.159Z,10.17
2023-04-15T18:19:32.192Z,10.15
2023-04-15T18:22:00.740Z,10.19
2023-04-15T18:24:30.190Z,10.19
2023-04-15T18:26:59.176Z,10.14
2023-04-15T18:29:27.089Z,10.05
2023-04-15T18:31:55.160Z,10.06
2023-04-15T18:34:23.050Z,10.05
2023-04-15T18:36:51.377Z,10.00
2023-04-15T18:39:19.331Z,9.92
2023-04-15T18:41:47.319Z,9.72
2023-04-15T18:44:15.470Z,9.55
2023-04-15T18:46:43.448Z,9.43
2023-04-15T18:49:12.473Z,9.28
2023-04-15T18:51:40.503Z,9.16
2023-04-15T18:54:08.500Z,9.09
2023-04-15T18:56:36.789Z,8.94
2023-04-15T18:59:18.272Z,8.87
2023-04-15T19:01:52.717Z,8.74
2023-04-15T19:04:21.044Z,8.67
2023-04-15T19:06:49.066Z,8.53
2023-04-15T19:09:17.104Z,8.51
2023-04-15T19:11:45.090Z,8.51
2023-04-15T19:14:13.096Z,8.48
2023-04-15T19:16:41.112Z,8.37
2023-04-15T19:19:09.118Z,8.28
2023-04-15T19:21:37.003Z,8.25
2023-04-15T19:24:05.000Z,8.21
2023-04-15T19:26:33.079Z,8.13
2023-04-15T19:29:01.104Z,8.10
2023-04-15T19:31:29.064Z,8.06
2023-04-15T19:33:57.239Z,7.99
2023-04-15T19:36:25.557Z,7.90
2023-04-15T19:38:53.622Z,7.84
2023-04-15T19:41:21.591Z,7.85
2023-04-15T19:43:49.559Z,7.80
2023-04-15T19:46:17.623Z,7.75
2023-04-15T19:48:45.537Z,7.70
2023-04-15T19:51:13.494Z,7.66
2023-04-15T19:53:41.436Z,7.66
2023-04-15T19:56:09.737Z,7.66
2023-04-15T19:58:37.747Z,7.66
2023-04-15T20:01:05.902Z,7.68
2023-04-15T20:03:34.012Z,7.67
2023-04-15T20:06:01.996Z,7.69
2023-04-15T20:08:29.991Z,7.64
2023-04-15T20:10:57.834Z,7.66
2023-04-15T20:13:25.782Z,7.67
2023-04-15T20:15:53.763Z,7.69
2023-04-15T20:18:21.682Z,7.73
2023-04-15T20:20:49.727Z,7.71
2023-04-15T20:23:17.813Z,7.68
2023-04-15T20:25:45.951Z,7.65
2023-04-15T20:28:13.882Z,7.59
2023-04-15T20:30:41.787Z,7.60
2023-04-15T20:33:09.833Z,7.58
2023-04-15T20:35:37.996Z,7.58
2023-04-15T20:38:06.194Z,7.53
2023-04-15T20:40:34.250Z,7.54
2023-04-15T20:43:02.225Z,7.51
2023-04-15T20:45:30.432Z,7.49
2023-04-15T20:47:58.702Z,7.44
2023-04-15T20:50:26.789Z,7.44
2023-04-15T20:52:54.715Z,7.42
2023-04-15T20:55:22.655Z,7.38
2023-04-15T20:57:50.621Z,7.39
2023-04-15T21:00:18.642Z,7.33
2023-04-15T21:02:46.662Z,7.31
2023-04-15T21:05:14.813Z,7.31
2023-04-15T21:07:42.803Z,7.28
2023-04-15T21:10:11.047Z,7.30
2023-04-15T21:12:40.958Z,7.29
2023-04-15T21:15:09.234Z,7.28
2023-04-15T21:17:37.259Z,7.27
2023-04-15T21:20:05.850Z,7.27
2023-04-15T21:22:33.766Z,7.28
2023-04-15T21:25:01.651Z,7.28
2023-04-15T21:27:29.627Z,7.31
2023-04-15T21:29:57.462Z,7.28
2023-04-15T21:32:25.689Z,7.32
2023-04-15T21:34:53.722Z,7.34
2023-04-15T21:37:21.657Z,7.39
2023-04-15T21:39:49.509Z,7.48
2023-04-15T21:42:17.543Z,7.55
2023-04-15T21:44:45.478Z,7.62
2023-04-15T21:47:13.534Z,7.69
2023-04-15T21:49:41.752Z,7.72
2023-04-15T21:52:10.006Z,7.75
2023-04-15T21:54:38.170Z,7.73
2023-04-15T21:57:06.409Z,7.70
2023-04-15T21:59:34.437Z,7.65
2023-04-15T22:02:02.381Z,7.60
2023-04-15T22:04:30.623Z,7.53
2023-04-15T22:07:01.805Z,7.51
2023-04-15T22:09:29.737Z,7.46
2023-04-15T22:11:59.414Z,7.40
2023-04-15T22:14:28.396Z,7.36
2023-04-15T22:16:57.106Z,7.29
2023-04-15T22:19:26.095Z,7.26
2023-04-15T22:21:54.009Z,7.23
2023-04-15T22:24:39.067Z,7.16
2023-04-15T22:27:08.909Z,7.11
2023-04-15T22:29:36.895Z,7.07
2023-04-15T22:32:05.071Z,7.00
2023-04-15T22:34:34.660Z,6.96
2023-04-15T22:37:02.602Z,6.88
2023-04-15T22:39:30.552Z,6.88
2023-04-15T22:41:58.463Z,6.90
2023-04-15T22:44:26.343Z,6.87
2023-04-15T22:46:55.003Z,6.88
2023-04-15T22:49:22.874Z,6.93
2023-04-15T22:51:51.002Z,6.95
2023-04-15T22:54:19.465Z,6.94
2023-04-15T22:56:47.352Z,6.94
2023-04-15T22:59:15.348Z,6.95
2023-04-15T23:01:43.290Z,6.93
2023-04-15T23:04:27.296Z,6.89
2023-04-15T23:06:55.864Z,6.79
2023-04-15T23:09:23.817Z,6.76
2023-04-15T23:11:51.733Z,6.73
2023-04-15T23:14:19.705Z,6.74
2023-04-15T23:16:47.886Z,6.71
2023-04-15T23:19:15.874Z,6.70
2023-04-15T23:21:43.828Z,6.62
2023-04-15T23:24:12.206Z,6.57
2023-04-15T23:26:40.904Z,6.55
2023-04-15T23:29:09.087Z,6.56
2023-04-15T23:31:37.345Z,6.54
2023-04-15T23:34:06.587Z,6.50
2023-04-15T23:36:34.459Z,6.47
2023-04-15T23:39:02.434Z,6.38
2023-04-15T23:41:30.288Z,6.31
2023-04-15T23:43:58.272Z,6.29
2023-04-15T23:46:26.227Z,6.34
2023-04-15T23:48:54.213Z,6.39
2023-04-15T23:51:22.124Z,6.34
2023-04-15T23:53:50.148Z,6.29
2023-04-15T23:56:18.169Z,6.27
2023-04-15T23:58:46.130Z,6.24
